createdAt,value
2018-07-02T00:00:35.630Z,101707.56
2018-07-02T00:03:04.714Z,101704.86
2018-07-02T00:06:45.551Z,101704.86
2018-07-02T00:09:14.702Z,101700.09
2018-07-02T00:11:43.806Z,101693.09
2018-07-02T00:14:12.773Z,101692.61
2018-07-02T00:16:41.726Z,101693.09
2018-07-02T00:19:10.834Z,101677.75
2018-07-02T00:21:39.716Z,101689.42
2018-07-02T00:24:08.751Z,101689.77
2018-07-02T00:26:37.854Z,101683.50
2018-07-02T00:29:06.798Z,101679.44
2018-07-02T00:31:35.797Z,101680.80
2018-07-02T00:34:04.842Z,101680.80
2018-07-02T00:36:33.979Z,101685.71
2018-07-02T00:39:03.142Z,101688.30
2018-07-02T00:41:32.075Z,101693.71
2018-07-02T00:44:01.014Z,101686.09
2018-07-02T00:46:30.109Z,101691.49
2018-07-02T00:48:59.202Z,101690.48
2018-07-02T00:51:28.250Z,101689.66
2018-07-02T00:53:57.257Z,101691.00
2018-07-02T00:56:26.230Z,101681.17
2018-07-02T00:58:55.456Z,101679.67
2018-07-02T01:01:27.707Z,101681.55
2018-07-02T01:03:58.485Z,101673.45
2018-07-02T01:06:27.365Z,101660.04
2018-07-02T01:08:56.388Z,101661.28
2018-07-02T01:11:25.264Z,101652.80
2018-07-02T01:13:54.461Z,101651.94
2018-07-02T01:16:23.624Z,101654.53
2018-07-02T01:18:52.410Z,101651.83
2018-07-02T01:21:21.455Z,101653.18
2018-07-02T01:23:50.444Z,101645.67
2018-07-02T01:26:20.788Z,101645.18
2018-07-02T01:28:49.901Z,101644.31
2018-07-02T01:31:18.899Z,101642.48
2018-07-02T01:33:47.984Z,101637.56
2018-07-02T01:36:16.933Z,101641.13
2018-07-02T01:38:45.999Z,101636.21
2018-07-02T01:41:15.102Z,101636.21
2018-07-02T01:43:43.854Z,101629.45
2018-07-02T01:46:12.963Z,101621.34
2018-07-02T01:48:41.955Z,101625.30
2018-07-02T01:51:11.006Z,101623.45
2018-07-02T01:53:39.882Z,101625.30
2018-07-02T01:56:08.691Z,101625.30
2018-07-02T01:58:37.762Z,101625.78
2018-07-02T02:01:06.748Z,101625.78
2018-07-02T02:03:35.738Z,101618.05
2018-07-02T02:06:04.632Z,101627.84
2018-07-02T02:08:33.684Z,101615.34
2018-07-02T02:11:02.732Z,101620.13
2018-07-02T02:13:31.832Z,101617.05
2018-07-02T02:16:00.660Z,101618.28
2018-07-02T02:18:29.596Z,101609.66
2018-07-02T02:20:58.532Z,101610.52
2018-07-02T02:23:27.425Z,101609.66
2018-07-02T02:25:56.743Z,101601.92
2018-07-02T02:28:25.682Z,101602.30
2018-07-02T02:30:54.475Z,101596.03
2018-07-02T02:33:23.559Z,101596.89
2018-07-02T02:35:52.554Z,101593.19
2018-07-02T02:38:21.534Z,101590.38
2018-07-02T02:40:50.769Z,101588.88
2018-07-02T02:43:19.752Z,101587.91
2018-07-02T02:45:48.685Z,101587.27
2018-07-02T02:48:17.783Z,101587.02
2018-07-02T02:50:46.941Z,101587.73
2018-07-02T02:53:16.061Z,101586.23
2018-07-02T02:55:44.999Z,101591.76
2018-07-02T02:58:14.121Z,101580.80
2018-07-02T03:00:42.910Z,101577.50
2018-07-02T03:03:12.007Z,101577.34
2018-07-02T03:05:40.976Z,101583.96
2018-07-02T03:08:10.006Z,101584.34
2018-07-02T03:10:39.318Z,101586.78
2018-07-02T03:13:08.100Z,101582.58
2018-07-02T03:15:37.139Z,101586.52
2018-07-02T03:18:06.113Z,101577.77
2018-07-02T03:20:34.969Z,101575.79
2018-07-02T03:23:04.025Z,101573.80
2018-07-02T03:25:32.961Z,101565.09
2018-07-02T03:28:01.952Z,101564.45
2018-07-02T03:30:30.895Z,101564.67
2018-07-02T03:32:59.834Z,101552.88
2018-07-02T03:35:28.669Z,101559.00
2018-07-02T03:37:57.927Z,101552.02
2018-07-02T03:40:26.927Z,101550.14
2018-07-02T03:42:55.867Z,101547.17
2018-07-02T03:45:24.907Z,101540.30
2018-07-02T03:47:53.643Z,101536.45
2018-07-02T03:50:23.511Z,101541.08
2018-07-02T03:52:52.451Z,101543.30
2018-07-02T03:55:21.496Z,101541.30
2018-07-02T03:57:50.349Z,101544.23
2018-07-02T04:00:19.178Z,101540.55
2018-07-02T04:02:47.953Z,101542.13
2018-07-02T04:05:17.012Z,101536.07
2018-07-02T04:07:46.177Z,101538.13
2018-07-02T04:10:15.055Z,101538.02
2018-07-02T04:12:44.045Z,101537.86
2018-07-02T04:15:12.966Z,101535.38
2018-07-02T04:17:41.926Z,101534.77
2018-07-02T04:20:10.896Z,101532.78
2018-07-02T04:22:39.866Z,101528.94
2018-07-02T04:25:09.025Z,101535.55
2018-07-02T04:27:37.905Z,101535.44
2018-07-02T04:30:06.846Z,101520.77
2018-07-02T04:32:35.783Z,101521.97
2018-07-02T04:35:04.634Z,101511.86
2018-07-02T04:37:33.576Z,101516.14
2018-07-02T04:40:02.778Z,101512.94
2018-07-02T04:42:31.823Z,101512.82
2018-07-02T04:45:00.880Z,101515.75
2018-07-02T04:47:29.921Z,101506.98
2018-07-02T04:49:58.849Z,101499.57
2018-07-02T04:52:27.893Z,101501.30
2018-07-02T04:54:57.062Z,101490.69
2018-07-02T04:57:26.255Z,101491.88
2018-07-02T04:59:55.407Z,101489.58
2018-07-02T05:02:24.386Z,101494.72
2018-07-02T05:04:53.329Z,101479.70
2018-07-02T05:07:22.907Z,101485.46
2018-07-02T05:09:51.872Z,101482.11
2018-07-02T05:12:20.878Z,101477.03
2018-07-02T05:14:49.817Z,101476.91
2018-07-02T05:17:18.821Z,101475.77
2018-07-02T05:19:47.724Z,101474.26
2018-07-02T05:22:16.733Z,101470.94
2018-07-02T05:24:45.909Z,101460.94
2018-07-02T05:27:15.146Z,101459.80
2018-07-02T05:29:44.046Z,101460.16
2018-07-02T05:32:12.906Z,101455.45
2018-07-02T05:34:41.841Z,101450.90
2018-07-02T05:37:10.829Z,101438.50
2018-07-02T05:39:39.929Z,101449.63
2018-07-02T05:42:08.802Z,101448.48
2018-07-02T05:44:37.849Z,101444.43
2018-07-02T05:47:06.758Z,101442.42
2018-07-02T05:49:35.585Z,101430.58
2018-07-02T05:52:04.785Z,101436.73
2018-07-02T05:54:33.834Z,101430.78
2018-07-02T05:57:02.846Z,101432.88
2018-07-02T05:59:31.902Z,101423.23
2018-07-02T06:02:00.933Z,101428.00
2018-07-02T06:04:29.960Z,101430.59
2018-07-02T06:06:58.935Z,101419.75
2018-07-02T06:09:27.997Z,101416.02
2018-07-02T06:11:56.942Z,101425.22
2018-07-02T06:14:25.824Z,101415.24
2018-07-02T06:16:54.881Z,101422.22
2018-07-02T06:19:24.025Z,101413.61
2018-07-02T06:21:52.983Z,101410.73
2018-07-02T06:24:21.862Z,101413.45
2018-07-02T06:26:50.917Z,101407.69
2018-07-02T06:29:19.997Z,101409.55
2018-07-02T06:31:48.945Z,101405.97
2018-07-02T06:34:17.758Z,101396.48
2018-07-02T06:36:46.678Z,101394.98
2018-07-02T06:39:15.417Z,101393.34
2018-07-02T06:41:44.150Z,101391.85
2018-07-02T06:44:13.202Z,101378.14
2018-07-02T06:46:42.049Z,101383.56
2018-07-02T06:49:10.942Z,101384.92
2018-07-02T06:51:40.021Z,101386.15
2018-07-02T06:54:08.979Z,101377.86
2018-07-02T06:56:38.180Z,101381.42
2018-07-02T06:59:06.991Z,101383.12
2018-07-02T07:01:35.965Z,101376.34
2018-07-02T07:04:05.162Z,101368.98
2018-07-02T07:06:34.170Z,101371.89
2018-07-02T07:09:03.286Z,101370.88
2018-07-02T07:11:32.604Z,101372.09
2018-07-02T07:14:02.122Z,101360.61
2018-07-02T07:16:31.165Z,101358.26
2018-07-02T07:19:00.146Z,101353.66
2018-07-02T07:21:29.200Z,101354.89
2018-07-02T07:23:58.344Z,101349.80
2018-07-02T07:26:27.284Z,101352.38
2018-07-02T07:28:56.191Z,101345.45
2018-07-02T07:31:25.129Z,101348.16
2018-07-02T07:33:54.273Z,101342.08
2018-07-02T07:36:23.316Z,101339.38
2018-07-02T07:38:52.269Z,101338.02
2018-07-02T07:41:21.305Z,101326.68
2018-07-02T07:43:50.290Z,101343.30
2018-07-02T07:46:19.455Z,101333.82
2018-07-02T07:48:48.497Z,101333.82
2018-07-02T07:51:17.432Z,101335.67
2018-07-02T07:53:46.318Z,101335.17
2018-07-02T07:56:15.430Z,101318.91
2018-07-02T07:58:44.412Z,101330.25
2018-07-02T08:01:13.457Z,101328.03
2018-07-02T08:03:42.606Z,101323.64
2018-07-02T08:06:11.711Z,101320.92
2018-07-02T08:08:40.809Z,101312.92
2018-07-02T08:11:09.787Z,101324.27
2018-07-02T08:13:39.045Z,101322.91
2018-07-02T08:16:08.245Z,101310.02
2018-07-02T08:18:37.193Z,101311.04
2018-07-02T08:21:06.158Z,101302.55
2018-07-02T08:23:35.236Z,101293.55
2018-07-02T08:26:04.287Z,101293.22
2018-07-02T08:28:33.322Z,101302.70
2018-07-02T08:31:02.565Z,101282.52
2018-07-02T08:33:31.567Z,101284.03
2018-07-02T08:36:00.718Z,101282.31
2018-07-02T08:38:29.750Z,101282.48
2018-07-02T08:40:58.989Z,101279.23
2018-07-02T08:43:28.050Z,101270.91
2018-07-02T08:45:57.064Z,101263.80
2018-07-02T08:48:26.183Z,101270.58
2018-07-02T08:50:55.253Z,101257.66
2018-07-02T08:53:24.687Z,101258.64
2018-07-02T08:55:53.787Z,101268.63
2018-07-02T08:58:22.815Z,101261.52
2018-07-02T09:00:51.798Z,101268.78
2018-07-02T09:03:20.821Z,101268.09
2018-07-02T09:05:49.773Z,101258.61
2018-07-02T09:08:18.912Z,101264.52
2018-07-02T09:10:47.820Z,101263.30
2018-07-02T09:13:16.794Z,101247.70
2018-07-02T09:15:45.990Z,101253.12
2018-07-02T09:18:14.942Z,101255.13
2018-07-02T09:20:44.112Z,101250.70
2018-07-02T09:23:13.172Z,101258.99
2018-07-02T09:25:42.179Z,101247.30
2018-07-02T09:28:11.238Z,101257.77
2018-07-02T09:30:40.690Z,101249.80
2018-07-02T09:33:09.641Z,101247.26
2018-07-02T09:35:38.544Z,101249.97
2018-07-02T09:38:07.659Z,101245.05
2018-07-02T09:40:36.755Z,101236.55
2018-07-02T09:43:05.863Z,101236.22
2018-07-02T09:45:34.857Z,101238.07
2018-07-02T09:48:03.862Z,101237.70
2018-07-02T09:50:33.044Z,101231.92
2018-07-02T09:53:02.042Z,101232.45
2018-07-02T09:55:31.098Z,101214.58
2018-07-02T09:58:00.470Z,101225.48
2018-07-02T10:00:29.571Z,101223.76
2018-07-02T10:02:58.308Z,101222.57
2018-07-02T10:05:27.512Z,101221.34
2018-07-02T10:07:56.615Z,101218.63
2018-07-02T10:10:25.654Z,101215.59
2018-07-02T10:12:54.466Z,101217.94
2018-07-02T10:15:23.621Z,101217.58
2018-07-02T10:17:52.508Z,101220.94
2018-07-02T10:20:21.640Z,101225.00
2018-07-02T10:22:50.480Z,101206.70
2018-07-02T10:25:19.454Z,101206.83
2018-07-02T10:27:48.470Z,101207.86
2018-07-02T10:30:17.520Z,101205.27
2018-07-02T10:32:46.545Z,101209.00
2018-07-02T10:35:15.494Z,101215.41
2018-07-02T10:37:44.592Z,101212.86
2018-07-02T10:40:13.589Z,101198.96
2018-07-02T10:42:42.680Z,101214.02
2018-07-02T10:45:11.538Z,101208.23
2018-07-02T10:47:40.569Z,101208.23
2018-07-02T10:50:09.762Z,101207.53
2018-07-02T10:52:38.722Z,101200.06
2018-07-02T10:55:07.754Z,101191.95
2018-07-02T10:57:36.803Z,101204.75
2018-07-02T11:00:06.094Z,101203.92
2018-07-02T11:02:35.150Z,101202.70
2018-07-02T11:05:04.400Z,101199.66
2018-07-02T11:07:33.459Z,101198.44
2018-07-02T11:10:02.520Z,101195.39
2018-07-02T11:12:31.729Z,101210.88
2018-07-02T11:15:01.046Z,101193.44
2018-07-02T11:17:30.148Z,101197.98
2018-07-02T11:19:59.231Z,101201.19
2018-07-02T11:22:28.239Z,101194.22
2018-07-02T11:24:57.260Z,101192.87
2018-07-02T11:27:26.247Z,101177.28
2018-07-02T11:29:55.365Z,101185.89
2018-07-02T11:32:24.203Z,101188.77
2018-07-02T11:34:53.120Z,101190.97
2018-07-02T11:37:22.212Z,101196.19
2018-07-02T11:39:51.313Z,101188.89
2018-07-02T11:42:20.444Z,101185.85
2018-07-02T11:44:49.436Z,101193.60
2018-07-02T11:47:18.357Z,101182.78
2018-07-02T11:49:47.393Z,101179.09
2018-07-02T11:52:16.507Z,101186.50
2018-07-02T11:54:45.278Z,101184.62
2018-07-02T11:57:14.244Z,101189.70
2018-07-02T11:59:43.162Z,101184.62
2018-07-02T12:02:12.260Z,101183.27
2018-07-02T12:04:41.231Z,101194.46
2018-07-02T12:07:10.228Z,101199.02
2018-07-02T12:09:39.245Z,101205.78
2018-07-02T12:14:42.654Z,101196.80
2018-07-02T12:17:11.701Z,101191.39
2018-07-02T12:22:15.005Z,101200.37
2018-07-02T12:24:43.942Z,101204.92
2018-07-02T12:27:13.087Z,101199.51
2018-07-02T12:29:42.084Z,101204.09
2018-07-02T12:32:11.026Z,101197.33
2018-07-02T12:34:40.071Z,101200.03
2018-07-02T12:37:08.937Z,101199.67
2018-07-02T12:39:37.966Z,101202.22
2018-07-02T12:42:06.938Z,101198.31
2018-07-02T12:44:35.945Z,101209.14
2018-07-02T12:47:05.198Z,101205.58
2018-07-02T12:49:34.271Z,101199.83
2018-07-02T12:52:03.381Z,101210.78
2018-07-02T12:54:32.668Z,101206.72
2018-07-02T12:57:01.785Z,101208.56
2018-07-02T12:59:31.031Z,101211.92
2018-07-02T13:02:00.291Z,101211.56
2018-07-02T13:04:29.391Z,101201.59
2018-07-02T13:06:58.220Z,101216.14
2018-07-02T13:09:27.322Z,101221.55
2018-07-02T13:11:56.266Z,101216.27
2018-07-02T13:14:25.472Z,101221.68
2018-07-02T13:16:54.448Z,101215.08
2018-07-02T13:19:23.397Z,101213.72
2018-07-02T13:21:52.344Z,101212.00
2018-07-02T13:24:21.590Z,101208.44
2018-07-02T13:26:50.574Z,101203.55
2018-07-02T13:29:19.423Z,101202.69
2018-07-02T13:31:48.571Z,101201.34
2018-07-02T13:34:17.602Z,101200.48
2018-07-02T13:36:46.727Z,101200.11
2018-07-02T13:39:15.767Z,101208.75
2018-07-02T13:41:44.846Z,101206.54
2018-07-02T13:44:13.969Z,101208.88
2018-07-02T13:46:43.051Z,101211.25
2018-07-02T13:49:12.034Z,101209.53
2018-07-02T13:51:41.162Z,101210.02
2018-07-02T13:54:10.133Z,101212.73
2018-07-02T13:56:39.286Z,101207.81
2018-07-02T13:59:08.621Z,101213.38
2018-07-02T14:01:37.692Z,101206.62
2018-07-02T14:04:06.957Z,101203.05
2018-07-02T14:06:36.214Z,101202.19
2018-07-02T14:09:08.527Z,101195.59
2018-07-02T14:11:37.982Z,101201.33
2018-07-02T14:14:07.003Z,101203.70
2018-07-02T14:16:36.306Z,101193.37
2018-07-02T14:19:05.770Z,101197.44
2018-07-02T14:21:34.928Z,101196.58
2018-07-02T14:24:04.334Z,101196.58
2018-07-02T14:26:33.492Z,101201.65
2018-07-02T14:29:02.760Z,101195.71
2018-07-02T14:31:31.853Z,101200.78
2018-07-02T14:34:01.054Z,101200.30
2018-07-02T14:36:30.181Z,101200.30
2018-07-02T14:38:59.334Z,101199.44
2018-07-02T14:41:28.464Z,101190.09
2018-07-02T14:43:57.543Z,101195.50
2018-07-02T14:46:26.394Z,101200.91
2018-07-02T14:48:55.445Z,101195.50
2018-07-02T14:51:24.471Z,101199.23
2018-07-02T14:53:53.546Z,101192.30
2018-07-02T14:56:22.619Z,101197.88
2018-07-02T14:58:52.389Z,101198.37
2018-07-02T15:01:21.320Z,101199.56
2018-07-02T15:03:50.226Z,101190.25
2018-07-02T15:06:19.260Z,101197.02
2018-07-02T15:08:48.115Z,101189.89
2018-07-02T15:11:17.088Z,101187.18
2018-07-02T15:13:46.153Z,101189.39
2018-07-02T15:16:15.337Z,101179.06
2018-07-02T15:18:44.446Z,101181.93
2018-07-02T15:21:13.622Z,101185.50
2018-07-02T15:23:42.705Z,101192.26
2018-07-02T15:26:11.887Z,101193.23
2018-07-02T15:28:41.126Z,101194.75
2018-07-02T15:31:10.048Z,101193.73
2018-07-02T15:33:39.241Z,101198.81
2018-07-02T15:36:08.330Z,101204.22
2018-07-02T15:38:37.512Z,101208.27
2018-07-02T15:41:06.556Z,101201.14
2018-07-02T15:43:35.700Z,101202.50
2018-07-02T15:46:04.849Z,101202.98
2018-07-02T15:48:34.075Z,101208.92
2018-07-02T15:51:03.223Z,101209.42
2018-07-02T15:53:32.250Z,101217.16
2018-07-02T15:56:01.343Z,101216.30
2018-07-02T15:58:30.359Z,101212.25
2018-07-02T16:00:59.282Z,101211.91
2018-07-02T16:03:28.369Z,101212.89
2018-07-02T16:05:57.327Z,101212.41
2018-07-02T16:08:26.438Z,101211.70
2018-07-02T16:10:55.421Z,101211.55
2018-07-02T16:13:24.462Z,101209.82
2018-07-02T16:15:53.399Z,101212.53
2018-07-02T16:18:22.610Z,101204.94
2018-07-02T16:20:51.689Z,101203.06
2018-07-02T16:23:20.808Z,101197.31
2018-07-02T16:25:50.053Z,101201.38
2018-07-02T16:28:19.453Z,101198.18
2018-07-02T16:30:48.594Z,101193.75
2018-07-02T16:33:17.694Z,101189.70
2018-07-02T16:35:46.648Z,101188.34
2018-07-02T16:38:15.554Z,101194.24
2018-07-02T16:40:44.478Z,101195.11
2018-07-02T16:43:13.731Z,101188.84
2018-07-02T16:45:43.632Z,101188.84
2018-07-02T16:48:12.657Z,101192.03
2018-07-02T16:50:41.639Z,101192.03
2018-07-02T16:53:10.745Z,101190.34
2018-07-02T16:55:39.767Z,101186.78
2018-07-02T16:58:08.862Z,101190.84
2018-07-02T17:00:37.906Z,101197.11
2018-07-02T17:03:08.911Z,101192.69
2018-07-02T17:05:38.399Z,101195.39
2018-07-02T17:08:07.639Z,101186.41
2018-07-02T17:10:36.749Z,101192.84
2018-07-02T17:13:05.904Z,101187.03
2018-07-02T17:15:35.826Z,101187.89
2018-07-02T17:18:04.757Z,101187.89
2018-07-02T17:20:33.953Z,101185.19
2018-07-02T17:23:02.992Z,101184.33
2018-07-02T17:25:31.984Z,101177.23
2018-07-02T17:28:01.047Z,101179.56
2018-07-02T17:30:30.254Z,101180.43
2018-07-02T17:32:59.453Z,101181.41
2018-07-02T17:35:28.587Z,101181.91
2018-07-02T17:37:57.615Z,101183.25
2018-07-02T17:40:26.720Z,101186.98
2018-07-02T17:42:55.908Z,101189.68
2018-07-02T17:45:25.771Z,101182.92
2018-07-02T17:47:54.971Z,101178.50
2018-07-02T17:50:24.179Z,101174.08
2018-07-02T17:52:53.387Z,101176.78
2018-07-02T17:55:22.520Z,101169.69
2018-07-02T17:57:52.209Z,101165.63
2018-07-02T18:00:21.251Z,101156.16
2018-07-02T18:02:50.863Z,101167.84
2018-07-02T18:05:20.134Z,101163.41
2018-07-02T18:07:49.346Z,101160.87
2018-07-02T18:10:18.346Z,101155.46
2018-07-02T18:12:47.495Z,101157.80
2018-07-02T18:15:16.612Z,101164.92
2018-07-02T18:17:45.528Z,101159.16
2018-07-02T18:20:14.831Z,101160.50
2018-07-02T18:22:44.196Z,101147.97
2018-07-02T18:25:13.346Z,101143.09
2018-07-02T18:27:43.049Z,101147.63
2018-07-02T18:30:12.157Z,101144.56
2018-07-02T18:32:41.487Z,101140.02
2018-07-02T18:35:10.545Z,101134.24
2018-07-02T18:37:39.533Z,101133.75
2018-07-02T18:40:09.194Z,101128.99
2018-07-02T18:42:38.507Z,101121.25
2018-07-02T18:45:08.220Z,101121.37
2018-07-02T18:47:37.187Z,101125.30
2018-07-02T18:50:06.588Z,101129.36
2018-07-02T18:52:35.777Z,101128.01
2018-07-02T18:55:04.996Z,101128.01
2018-07-02T18:57:33.969Z,101121.25
2018-07-02T19:00:03.150Z,101121.25
2018-07-02T19:02:32.258Z,101122.59
2018-07-02T19:05:01.399Z,101118.17
2018-07-02T19:07:30.629Z,101128.50
2018-07-02T19:09:59.729Z,101128.01
2018-07-02T19:12:28.891Z,101127.64
2018-07-02T19:14:58.144Z,101129.85
2018-07-02T19:17:27.421Z,101123.59
2018-07-02T19:19:56.658Z,101124.94
2018-07-02T19:22:26.140Z,101129.36
2018-07-02T19:24:55.597Z,101132.06
2018-07-02T19:27:25.242Z,101132.19
2018-07-02T19:29:54.933Z,101130.34
2018-07-02T19:32:24.766Z,101083.92
2018-07-02T19:34:54.134Z,101127.64
2018-07-02T19:37:23.781Z,101128.99
2018-07-02T19:39:53.424Z,101128.99
2018-07-02T19:42:23.054Z,101125.09
2018-07-02T19:44:52.223Z,101130.34
2018-07-02T19:47:21.350Z,101124.57
2018-07-02T19:49:50.488Z,101126.45
2018-07-02T19:52:19.856Z,101124.73
2018-07-02T19:54:49.421Z,101137.26
2018-07-02T19:57:18.961Z,101128.78
2018-07-02T19:59:48.319Z,101125.22
2018-07-02T20:02:17.717Z,101125.22
2018-07-02T20:04:46.835Z,101121.66
2018-07-02T20:07:16.013Z,101120.80
2018-07-02T20:09:44.883Z,101116.41
2018-07-02T20:12:13.995Z,101120.95
2018-07-02T20:14:43.328Z,101116.90
2018-07-02T20:17:12.360Z,101114.35
2018-07-02T20:19:42.441Z,101111.77
2018-07-02T20:22:11.513Z,101109.07
2018-07-02T20:24:41.089Z,101109.07
2018-07-02T20:27:10.326Z,101104.16
2018-07-02T20:29:39.493Z,101104.16
2018-07-02T20:32:08.512Z,101101.98
2018-07-02T20:34:37.634Z,101100.75
2018-07-02T20:37:06.623Z,101104.81
2018-07-02T20:39:36.198Z,101106.65
2018-07-02T20:42:05.564Z,101102.26
2018-07-02T20:44:34.490Z,101090.59
2018-07-02T20:47:04.034Z,101088.75
2018-07-02T20:49:33.182Z,101088.37
2018-07-02T20:52:02.322Z,101088.37
2018-07-02T20:54:31.463Z,101088.37
2018-07-02T20:57:00.788Z,101092.44
2018-07-02T20:59:29.943Z,101095.63
2018-07-02T21:01:59.110Z,101089.73
2018-07-02T21:04:28.275Z,101088.37
2018-07-02T21:06:57.420Z,101081.29
2018-07-02T21:09:26.564Z,101074.53
2018-07-02T21:11:55.595Z,101067.77
2018-07-02T21:14:24.452Z,101064.21
2018-07-02T21:16:53.275Z,101057.95
2018-07-02T21:19:22.354Z,101060.49
2018-07-02T21:21:51.276Z,101060.16
2018-07-02T21:24:20.067Z,101058.31
2018-07-02T21:26:49.059Z,101055.09
2018-07-02T21:29:17.995Z,101056.44
2018-07-02T21:31:47.180Z,101049.84
2018-07-02T21:34:16.037Z,101048.00
2018-07-02T21:36:44.894Z,101048.00
2018-07-02T21:39:14.512Z,101048.00
2018-07-02T21:41:43.721Z,101047.63
2018-07-02T21:44:12.576Z,101044.44
2018-07-02T21:46:41.419Z,101044.93
2018-07-02T21:49:10.217Z,101035.95
2018-07-02T21:51:39.002Z,101044.07
2018-07-02T21:54:07.816Z,101032.43
2018-07-02T21:56:36.668Z,101035.47
2018-07-02T21:59:05.695Z,101037.31
2018-07-02T22:01:34.955Z,101032.06
2018-07-02T22:04:04.063Z,101032.06
2018-07-02T22:06:33.111Z,101036.13
2018-07-02T22:09:02.024Z,101042.38
2018-07-02T22:11:30.926Z,101044.23
2018-07-02T22:13:59.743Z,101050.13
2018-07-02T22:16:28.607Z,101050.13
2018-07-02T22:18:57.727Z,101048.77
2018-07-02T22:21:26.656Z,101048.41
2018-07-02T22:23:55.920Z,101042.17
2018-07-02T22:26:24.809Z,101037.27
2018-07-02T22:28:53.681Z,101037.27
2018-07-02T22:31:24.404Z,101034.69
2018-07-02T22:33:53.428Z,101027.10
2018-07-02T22:36:22.261Z,101027.93
2018-07-02T22:38:51.100Z,101020.84
2018-07-02T22:41:20.057Z,101024.89
2018-07-02T22:43:48.893Z,101026.37
2018-07-02T22:46:17.842Z,101027.72
2018-07-02T22:48:46.683Z,101025.55
2018-07-02T22:51:15.627Z,101020.63
2018-07-02T22:53:44.438Z,101019.28
2018-07-02T22:56:13.250Z,101009.95
2018-07-02T22:58:42.212Z,101011.83
2018-07-02T23:01:10.974Z,101008.27
2018-07-02T23:03:39.887Z,101006.05
2018-07-02T23:06:08.790Z,101006.91
2018-07-02T23:08:37.887Z,101003.84
2018-07-02T23:11:07.115Z,101002.16
2018-07-02T23:13:36.105Z,101000.81
2018-07-02T23:16:05.654Z,100998.59
2018-07-02T23:18:35.381Z,101000.44
2018-07-02T23:21:04.619Z,101001.30
2018-07-02T23:23:34.229Z,101001.30
2018-07-02T23:26:03.645Z,100998.72
2018-07-02T23:28:32.585Z,101011.62
2018-07-02T23:31:01.536Z,101012.60
2018-07-02T23:33:30.903Z,101009.90
2018-07-02T23:36:00.083Z,101003.14
2018-07-02T23:38:29.339Z,101003.14
2018-07-02T23:40:58.743Z,101004.49
2018-07-02T23:43:27.806Z,101001.80
2018-07-02T23:45:56.977Z,101009.53
2018-07-02T23:48:26.166Z,101015.46
2018-07-02T23:50:55.374Z,101007.69
2018-07-02T23:53:24.473Z,101008.18
2018-07-02T23:55:53.523Z,101005.48
2018-07-02T23:58:22.815Z,101010.88
